createdAt,value
2016-09-15T00:03:46.999Z,94.55
2016-09-15T00:04:31.097Z,94.80
2016-09-15T00:05:23.658Z,94.58
2016-09-15T00:06:33.470Z,94.39
2016-09-15T00:07:25.242Z,94.10
2016-09-15T00:11:33.387Z,94.91
2016-09-15T00:12:36.789Z,94.33
2016-09-15T00:13:31.951Z,94.36
2016-09-15T00:14:36.884Z,94.37
2016-09-15T00:15:27.733Z,94.62
2016-09-15T00:16:50.354Z,94.58
2016-09-15T00:17:40.212Z,94.54
2016-09-15T00:18:37.117Z,94.98
2016-09-15T00:19:25.280Z,94.96
2016-09-15T00:20:32.586Z,95.19
2016-09-15T00:23:33.253Z,94.88
2016-09-15T00:24:48.227Z,95.34
2016-09-15T00:25:37.426Z,95.43
2016-09-15T00:26:25.864Z,95.23
2016-09-15T00:27:48.662Z,95.51
2016-09-15T00:28:35.044Z,95.13
2016-09-15T00:29:33.235Z,94.84
2016-09-15T00:30:28.699Z,95.38
2016-09-15T00:32:33.241Z,95.54
2016-09-15T00:33:34.053Z,95.05
2016-09-15T00:34:39.497Z,95.00
2016-09-15T00:35:28.387Z,95.03
2016-09-15T00:36:37.251Z,95.27
2016-09-15T00:37:30.110Z,94.60
2016-09-15T00:38:32.681Z,94.94
2016-09-15T00:39:28.747Z,94.86
2016-09-15T00:41:38.440Z,94.77
2016-09-15T00:42:38.566Z,95.32
2016-09-15T00:43:38.789Z,95.80
2016-09-15T00:50:25.731Z,94.55
2016-09-15T00:51:29.171Z,95.53
2016-09-15T00:52:27.579Z,95.79
2016-09-15T00:53:37.571Z,96.14
2016-09-15T00:54:38.115Z,95.78
2016-09-15T00:55:28.267Z,95.26
2016-09-15T00:56:42.421Z,95.41
2016-09-15T00:57:28.738Z,95.12
2016-09-15T00:58:38.761Z,95.28
2016-09-15T00:59:39.456Z,95.23
2016-09-15T01:01:24.113Z,95.11
2016-09-15T01:02:40.007Z,95.17
2016-09-15T01:03:28.661Z,95.73
2016-09-15T01:04:34.234Z,96.18
2016-09-15T01:05:42.567Z,96.44
2016-09-15T01:06:32.097Z,96.44
2016-09-15T01:08:28.054Z,96.17
2016-09-15T01:09:28.853Z,96.05
2016-09-15T01:10:32.922Z,96.43
2016-09-15T01:11:33.562Z,96.59
2016-09-15T01:12:29.066Z,96.69
2016-09-15T01:13:28.021Z,96.23
2016-09-15T01:14:32.118Z,96.27
2016-09-15T01:16:37.453Z,95.73
2016-09-15T01:17:32.607Z,95.90
2016-09-15T01:18:32.111Z,95.74
2016-09-15T01:19:25.250Z,95.78
2016-09-15T01:21:25.146Z,95.20
2016-09-15T01:22:33.666Z,95.07
2016-09-15T01:23:33.399Z,95.65
2016-09-15T01:24:37.731Z,95.90
2016-09-15T01:25:24.004Z,96.48
2016-09-15T01:26:40.529Z,96.61
2016-09-15T01:28:35.482Z,96.75
2016-09-15T01:29:38.801Z,96.95
2016-09-15T01:30:33.363Z,96.67
2016-09-15T01:31:25.179Z,96.36
2016-09-15T01:32:37.268Z,96.53
2016-09-15T01:33:37.495Z,96.47
2016-09-15T01:35:39.333Z,96.52
2016-09-15T01:36:36.103Z,97.01
2016-09-15T01:37:32.250Z,97.31
2016-09-15T01:38:33.888Z,97.50
2016-09-15T01:39:30.024Z,97.01
2016-09-15T01:41:43.399Z,96.72
2016-09-15T01:42:32.461Z,96.77
2016-09-15T01:43:38.455Z,97.13
2016-09-15T01:45:28.741Z,97.15
2016-09-15T01:46:31.056Z,96.87
2016-09-15T01:47:32.159Z,96.92
2016-09-15T01:48:30.452Z,97.13
2016-09-15T01:49:31.694Z,97.32
2016-09-15T01:51:01.648Z,97.76
2016-09-15T01:51:43.611Z,97.22
2016-09-15T01:52:31.312Z,96.73
2016-09-15T01:53:43.874Z,96.65
2016-09-15T01:54:29.275Z,96.65
2016-09-15T01:55:30.654Z,97.06
2016-09-15T01:56:49.626Z,96.90
2016-09-15T01:57:31.601Z,96.75
2016-09-15T01:58:33.670Z,97.48
2016-09-15T01:59:38.063Z,97.60
2016-09-15T02:01:00.573Z,97.80
2016-09-15T02:01:27.624Z,97.57
2016-09-15T02:02:33.349Z,97.09
2016-09-15T02:03:31.649Z,97.03
2016-09-15T02:04:32.395Z,97.54
2016-09-15T02:06:45.090Z,97.61
2016-09-15T02:09:31.282Z,97.38
2016-09-15T02:10:37.491Z,97.46
2016-09-15T02:11:25.044Z,97.42
2016-09-15T02:12:29.338Z,97.72
2016-09-15T02:13:40.549Z,97.69
2016-09-15T02:15:32.169Z,97.57
2016-09-15T02:16:32.989Z,97.93
2016-09-15T02:17:44.058Z,97.97
2016-09-15T02:18:43.643Z,97.26
2016-09-15T02:20:29.233Z,97.60
2016-09-15T02:22:33.018Z,97.18
2016-09-15T02:23:28.021Z,97.13
2016-09-15T02:25:28.723Z,96.63
2016-09-15T02:26:32.734Z,96.56
2016-09-15T02:27:26.079Z,96.57
2016-09-15T02:28:44.074Z,96.62
2016-09-15T02:29:39.148Z,97.03
2016-09-15T02:31:33.951Z,97.01
2016-09-15T02:32:31.703Z,96.71
2016-09-15T02:33:38.669Z,96.95
2016-09-15T02:34:28.741Z,96.77
2016-09-15T02:36:23.407Z,96.52
2016-09-15T02:37:29.042Z,96.44
2016-09-15T02:38:28.043Z,96.56
2016-09-15T02:39:30.118Z,96.64
2016-09-15T02:40:32.225Z,96.87
2016-09-15T02:41:37.656Z,96.39
2016-09-15T02:42:30.112Z,96.41
2016-09-15T02:43:33.627Z,96.27
2016-09-15T02:44:29.056Z,96.08
2016-09-15T02:46:29.933Z,95.91
2016-09-15T02:47:32.216Z,96.11
2016-09-15T02:48:23.795Z,96.14
2016-09-15T02:49:37.562Z,96.14
2016-09-15T02:50:31.981Z,95.97
2016-09-15T02:51:40.073Z,95.64
2016-09-15T02:53:26.590Z,95.14
2016-09-15T02:54:50.413Z,95.18
2016-09-15T02:56:27.697Z,95.29
2016-09-15T02:57:32.480Z,95.76
2016-09-15T02:58:27.343Z,96.02
2016-09-15T02:59:33.721Z,95.87
2016-09-15T03:00:38.667Z,95.77
2016-09-15T03:01:48.664Z,95.19
2016-09-15T03:02:33.039Z,95.32
2016-09-15T03:03:29.112Z,95.07
2016-09-15T03:05:33.410Z,95.59
2016-09-15T03:06:32.105Z,95.80
2016-09-15T03:07:25.139Z,95.99
2016-09-15T03:08:25.654Z,95.84
2016-09-15T03:09:25.279Z,95.97
2016-09-15T03:12:37.367Z,95.56
2016-09-15T03:13:29.754Z,95.29
2016-09-15T03:14:33.855Z,95.67
2016-09-15T03:16:38.233Z,95.43
2016-09-15T03:17:34.455Z,95.51
2016-09-15T03:18:28.145Z,95.53
2016-09-15T03:19:32.298Z,95.58
2016-09-15T03:20:32.395Z,95.18
2016-09-15T03:21:33.466Z,95.06
2016-09-15T03:22:29.074Z,95.34
2016-09-15T03:23:32.422Z,95.36
2016-09-15T03:24:33.395Z,96.02
2016-09-15T03:25:41.103Z,96.38
2016-09-15T03:26:32.194Z,96.92
2016-09-15T03:27:37.716Z,96.23
2016-09-15T03:28:26.316Z,96.05
2016-09-15T03:29:39.472Z,96.52
2016-09-15T03:30:50.331Z,96.89
2016-09-15T03:31:44.526Z,97.00
2016-09-15T03:33:43.351Z,96.88
2016-09-15T03:35:38.002Z,97.12
2016-09-15T03:36:30.247Z,97.15
2016-09-15T03:37:37.001Z,96.89
2016-09-15T03:38:31.999Z,96.91
2016-09-15T03:39:38.325Z,97.08
2016-09-15T03:40:37.970Z,97.36
2016-09-15T03:42:28.781Z,98.10
2016-09-15T03:43:37.053Z,97.27
2016-09-15T03:44:35.842Z,97.30
2016-09-15T03:46:31.485Z,97.17
2016-09-15T03:47:53.141Z,96.81
2016-09-15T03:49:28.165Z,97.43
2016-09-15T03:50:32.008Z,97.86
2016-09-15T03:51:40.089Z,97.13
2016-09-15T03:52:33.719Z,96.64
2016-09-15T03:53:31.243Z,97.03
2016-09-15T03:54:29.390Z,97.00
2016-09-15T03:55:54.909Z,97.24
2016-09-15T03:57:42.492Z,97.22
2016-09-15T03:59:43.929Z,96.99
2016-09-15T04:00:23.661Z,96.72
2016-09-15T04:01:29.668Z,96.37
2016-09-15T04:03:26.858Z,96.43
2016-09-15T04:04:31.737Z,96.35
2016-09-15T04:05:35.353Z,96.46
2016-09-15T04:06:44.964Z,96.44
2016-09-15T04:07:38.650Z,96.23
2016-09-15T04:08:46.711Z,96.28
2016-09-15T04:09:38.509Z,96.60
2016-09-15T04:10:37.630Z,96.58
2016-09-15T04:12:33.610Z,96.62
2016-09-15T04:13:32.424Z,96.76
2016-09-15T04:14:24.767Z,97.09
2016-09-15T04:15:38.659Z,97.05
2016-09-15T04:18:27.657Z,97.40
2016-09-15T04:21:22.714Z,98.15
2016-09-15T04:21:28.941Z,97.85
2016-09-15T04:22:29.714Z,97.26
2016-09-15T04:26:44.393Z,98.07
2016-09-15T04:28:41.725Z,98.16
2016-09-15T04:30:28.441Z,97.86
2016-09-15T04:31:30.652Z,97.86
2016-09-15T04:32:27.051Z,98.32
2016-09-15T04:34:28.234Z,98.68
2016-09-15T04:35:42.168Z,98.40
2016-09-15T04:36:31.630Z,97.99
2016-09-15T04:37:47.746Z,97.75
2016-09-15T04:38:32.805Z,97.68
2016-09-15T04:39:43.775Z,97.79
2016-09-15T04:40:26.195Z,97.91
2016-09-15T04:41:38.608Z,98.11
2016-09-15T04:42:27.627Z,97.97
2016-09-15T04:44:33.188Z,98.50
2016-09-15T04:46:48.657Z,98.22
2016-09-15T04:47:48.733Z,97.99
2016-09-15T04:48:32.758Z,98.27
2016-09-15T04:49:43.056Z,98.56
2016-09-15T04:50:38.647Z,98.88
2016-09-15T04:51:27.954Z,98.46
2016-09-15T04:52:37.999Z,98.13
2016-09-15T04:53:42.464Z,97.87
2016-09-15T04:54:26.534Z,97.70
2016-09-15T04:55:43.503Z,97.44
2016-09-15T04:56:25.145Z,97.31
2016-09-15T04:57:35.358Z,97.22
2016-09-15T05:00:36.838Z,97.80
2016-09-15T05:01:36.462Z,97.82
2016-09-15T05:02:32.552Z,97.93
2016-09-15T05:04:44.044Z,98.46
2016-09-15T05:05:23.179Z,98.19
2016-09-15T05:06:26.111Z,97.83
2016-09-15T05:07:43.145Z,98.05
2016-09-15T05:09:38.766Z,97.62
2016-09-15T05:10:28.718Z,97.98
2016-09-15T05:11:30.388Z,98.45
2016-09-15T05:12:44.772Z,98.37
2016-09-15T05:13:29.796Z,98.19
2016-09-15T05:14:40.440Z,97.94
2016-09-15T05:16:22.093Z,98.96
2016-09-15T05:17:34.960Z,98.66
2016-09-15T05:19:48.322Z,99.03
2016-09-15T05:20:19.160Z,98.59
2016-09-15T05:21:24.615Z,98.06
2016-09-15T05:22:28.631Z,97.77
2016-09-15T05:23:32.139Z,98.01
2016-09-15T05:24:25.121Z,97.61
2016-09-15T05:26:31.847Z,98.48
2016-09-15T05:27:29.058Z,98.40
2016-09-15T05:28:24.477Z,98.13
2016-09-15T05:29:25.280Z,98.01
2016-09-15T05:30:38.352Z,97.93
2016-09-15T05:31:17.600Z,98.41
2016-09-15T05:32:28.189Z,98.36
2016-09-15T05:33:38.651Z,98.52
2016-09-15T05:34:33.337Z,98.45
2016-09-15T05:35:28.464Z,99.01
2016-09-15T05:37:40.057Z,98.57
2016-09-15T05:39:26.510Z,98.06
2016-09-15T05:42:21.142Z,97.93
2016-09-15T05:44:24.327Z,98.58
2016-09-15T05:45:35.773Z,98.90
2016-09-15T05:46:32.779Z,98.65
2016-09-15T05:47:44.730Z,98.73
2016-09-15T05:48:34.358Z,98.41
2016-09-15T05:52:49.805Z,99.05
2016-09-15T05:54:36.648Z,98.76
2016-09-15T05:57:28.422Z,98.92
2016-09-15T05:58:30.460Z,98.94
2016-09-15T05:59:32.370Z,98.31
2016-09-15T06:00:25.880Z,98.52
2016-09-15T06:02:27.799Z,99.14
2016-09-15T06:03:28.399Z,99.26
2016-09-15T06:04:34.718Z,98.86
2016-09-15T06:06:36.692Z,99.01
2016-09-15T06:07:33.366Z,98.62
2016-09-15T06:08:28.949Z,98.52
2016-09-15T06:09:25.271Z,98.98
2016-09-15T06:10:32.413Z,99.00
2016-09-15T06:11:38.365Z,99.11
2016-09-15T06:13:20.822Z,98.57
2016-09-15T06:15:35.377Z,98.71
2016-09-15T06:16:28.446Z,98.35
2016-09-15T06:17:34.107Z,98.76
2016-09-15T06:18:32.139Z,98.18
2016-09-15T06:19:32.254Z,97.37
2016-09-15T06:20:24.685Z,97.90
2016-09-15T06:21:33.426Z,97.37
2016-09-15T06:22:38.424Z,97.62
2016-09-15T06:23:28.811Z,98.23
2016-09-15T06:24:28.279Z,98.17
2016-09-15T06:25:32.979Z,98.08
2016-09-15T06:26:34.420Z,97.87
2016-09-15T06:27:28.087Z,97.24
2016-09-15T06:28:36.106Z,98.09
2016-09-15T06:29:28.438Z,98.08
2016-09-15T06:30:47.945Z,98.44
2016-09-15T06:31:30.134Z,97.91
2016-09-15T06:32:42.602Z,97.89
2016-09-15T06:33:30.682Z,97.20
2016-09-15T06:34:37.311Z,97.37
2016-09-15T06:35:32.572Z,97.69
2016-09-15T06:38:30.638Z,97.37
2016-09-15T06:40:33.743Z,96.36
2016-09-15T06:41:32.378Z,96.33
2016-09-15T06:42:39.821Z,96.91
2016-09-15T06:44:29.656Z,97.25
2016-09-15T06:45:35.716Z,97.32
2016-09-15T06:47:38.983Z,96.81
2016-09-15T06:48:43.971Z,96.57
2016-09-15T06:49:31.104Z,96.25
2016-09-15T06:50:37.552Z,96.49
2016-09-15T06:52:30.146Z,96.20
2016-09-15T06:53:29.095Z,96.19
2016-09-15T06:55:34.361Z,96.16
2016-09-15T06:56:42.249Z,95.39
2016-09-15T06:57:39.715Z,95.42
2016-09-15T06:58:28.403Z,95.09
2016-09-15T06:59:45.742Z,94.27
2016-09-15T07:01:38.978Z,94.47
2016-09-15T07:02:36.635Z,94.66
2016-09-15T07:03:25.141Z,94.16
2016-09-15T07:04:32.477Z,94.04
2016-09-15T07:05:32.051Z,94.74
2016-09-15T07:06:33.080Z,94.38
2016-09-15T07:07:28.801Z,93.77
2016-09-15T07:08:39.735Z,93.74
2016-09-15T07:10:25.368Z,93.48
2016-09-15T07:11:37.970Z,93.48
2016-09-15T07:12:26.896Z,93.14
2016-09-15T07:16:29.738Z,93.74
2016-09-15T07:17:33.054Z,93.22
2016-09-15T07:18:31.115Z,93.67
2016-09-15T07:19:28.970Z,93.48
2016-09-15T07:20:28.701Z,92.81
2016-09-15T07:21:33.183Z,92.36
2016-09-15T07:22:27.886Z,92.08
2016-09-15T07:24:37.434Z,91.28
2016-09-15T07:25:47.356Z,91.05
2016-09-15T07:26:32.040Z,91.45
2016-09-15T07:27:31.902Z,91.41
2016-09-15T07:28:39.967Z,90.54
2016-09-15T07:29:33.251Z,90.34
2016-09-15T07:30:31.729Z,89.96
2016-09-15T07:31:25.533Z,89.89
2016-09-15T07:32:32.716Z,88.88
2016-09-15T07:33:25.640Z,88.64
2016-09-15T07:34:24.966Z,89.38
2016-09-15T07:35:35.722Z,90.39
2016-09-15T07:36:28.843Z,90.17
2016-09-15T07:37:37.825Z,89.55
2016-09-15T07:38:38.063Z,89.84
2016-09-15T07:39:39.938Z,90.53
2016-09-15T07:40:25.341Z,89.67
2016-09-15T07:41:28.146Z,89.69
2016-09-15T07:42:32.568Z,89.35
2016-09-15T07:48:30.571Z,87.59
2016-09-15T07:49:30.371Z,87.10
2016-09-15T07:51:40.691Z,87.13
2016-09-15T07:52:42.966Z,86.71
2016-09-15T07:53:35.375Z,86.82
2016-09-15T07:54:32.962Z,86.67
2016-09-15T07:55:28.162Z,86.79
2016-09-15T07:56:26.371Z,86.66
2016-09-15T07:57:24.344Z,85.80
2016-09-15T07:58:43.372Z,84.22
2016-09-15T07:59:39.623Z,83.82
2016-09-15T08:00:30.876Z,83.84
2016-09-15T08:01:38.424Z,83.64
2016-09-15T08:02:38.083Z,83.50
2016-09-15T08:03:33.356Z,83.23
2016-09-15T08:04:34.419Z,82.84
2016-09-15T08:05:30.626Z,82.07
2016-09-15T08:06:44.726Z,82.10
2016-09-15T08:09:33.778Z,79.95
2016-09-15T08:10:47.770Z,80.29
2016-09-15T08:11:38.098Z,80.93
2016-09-15T08:13:42.076Z,80.54
2016-09-15T08:14:26.433Z,80.04
2016-09-15T08:15:28.074Z,79.71
2016-09-15T08:16:33.519Z,79.69
2016-09-15T08:17:27.101Z,80.23
2016-09-15T08:19:32.715Z,79.31
2016-09-15T08:20:38.637Z,79.89
2016-09-15T08:21:40.058Z,79.65
2016-09-15T08:23:32.213Z,78.92
2016-09-15T08:24:37.660Z,78.39
2016-09-15T08:26:32.449Z,78.00
2016-09-15T08:27:36.533Z,77.08
2016-09-15T08:29:32.477Z,77.36
2016-09-15T08:30:28.780Z,77.62
2016-09-15T08:31:34.562Z,77.51
2016-09-15T08:33:29.274Z,77.62
2016-09-15T08:34:33.442Z,77.24
2016-09-15T08:35:26.581Z,76.83
2016-09-15T08:38:32.486Z,75.82
2016-09-15T08:39:25.066Z,75.58
2016-09-15T08:41:25.476Z,75.27
2016-09-15T08:44:29.726Z,74.75
2016-09-15T08:45:23.997Z,74.23
2016-09-15T08:46:34.447Z,74.06
2016-09-15T08:47:31.783Z,74.16
2016-09-15T08:48:48.311Z,73.38
2016-09-15T08:49:33.450Z,73.22
2016-09-15T08:50:25.632Z,73.89
2016-09-15T08:51:41.719Z,74.15
2016-09-15T08:52:34.768Z,73.99
2016-09-15T08:53:29.988Z,74.49
2016-09-15T08:55:38.484Z,74.57
2016-09-15T08:56:44.395Z,74.42
2016-09-15T08:57:32.174Z,74.38
2016-09-15T08:58:24.480Z,73.81
2016-09-15T09:01:31.931Z,72.48
2016-09-15T09:02:32.171Z,72.35
2016-09-15T09:03:39.037Z,72.33
2016-09-15T09:04:27.707Z,72.06
2016-09-15T09:06:26.712Z,72.46
2016-09-15T09:07:19.878Z,72.18
2016-09-15T09:08:17.801Z,72.01
2016-09-15T09:12:28.665Z,71.46
2016-09-15T09:13:31.994Z,68.90
2016-09-15T09:14:33.044Z,67.91
2016-09-15T09:17:31.392Z,66.98
2016-09-15T09:18:39.195Z,67.31
2016-09-15T09:19:37.531Z,67.59
2016-09-15T09:20:34.071Z,67.93
2016-09-15T09:22:40.283Z,67.94
2016-09-15T09:24:37.193Z,66.78
2016-09-15T09:25:31.725Z,67.38
2016-09-15T09:26:26.823Z,66.51
2016-09-15T09:27:39.535Z,65.18
2016-09-15T09:31:31.263Z,65.93
2016-09-15T09:32:32.579Z,65.15
2016-09-15T09:33:32.419Z,64.65
2016-09-15T09:34:25.344Z,64.72
2016-09-15T09:35:35.006Z,64.46
2016-09-15T09:38:32.134Z,62.26
2016-09-15T09:40:41.659Z,63.11
2016-09-15T09:41:40.423Z,62.89
2016-09-15T09:42:25.595Z,61.26
2016-09-15T09:44:26.714Z,60.75
2016-09-15T09:46:27.166Z,61.34
2016-09-15T09:51:31.731Z,61.82
2016-09-15T09:52:44.111Z,61.29
2016-09-15T09:53:50.003Z,60.46
2016-09-15T09:56:18.483Z,61.16
2016-09-15T09:57:28.573Z,60.47
2016-09-15T09:58:22.619Z,59.20
2016-09-15T09:59:23.172Z,58.93
2016-09-15T10:00:08.938Z,59.98
2016-09-15T10:01:13.912Z,59.89
2016-09-15T10:02:38.911Z,60.93
2016-09-15T10:03:43.053Z,61.53
2016-09-15T10:04:37.415Z,61.38
2016-09-15T10:05:23.033Z,61.10
2016-09-15T10:06:23.873Z,61.48
2016-09-15T10:07:34.643Z,60.62
2016-09-15T10:08:27.434Z,58.55
2016-09-15T10:09:24.282Z,58.34
2016-09-15T10:10:42.285Z,58.53
2016-09-15T10:12:38.331Z,57.61
2016-09-15T10:14:50.374Z,57.32
2016-09-15T10:15:42.155Z,57.48
2016-09-15T10:16:23.480Z,57.38
2016-09-15T10:17:25.291Z,57.12
2016-09-15T10:18:32.092Z,56.00
2016-09-15T10:20:38.971Z,54.51
2016-09-15T10:22:32.206Z,54.85
2016-09-15T10:25:37.453Z,54.74
2016-09-15T10:26:32.263Z,54.31
2016-09-15T10:27:38.616Z,54.67
2016-09-15T10:29:33.908Z,55.58
2016-09-15T10:30:39.956Z,56.58
2016-09-15T10:31:29.205Z,55.00
2016-09-15T10:32:26.116Z,55.50
2016-09-15T10:33:43.345Z,54.61
2016-09-15T10:34:32.524Z,54.68
2016-09-15T10:35:49.133Z,54.72
2016-09-15T10:38:24.055Z,54.04
2016-09-15T10:40:33.406Z,53.82
2016-09-15T10:41:32.855Z,52.73
2016-09-15T10:42:27.736Z,53.13
2016-09-15T10:43:24.136Z,52.82
2016-09-15T10:44:27.706Z,52.74
2016-09-15T10:45:33.150Z,53.15
2016-09-15T10:46:33.281Z,53.32
2016-09-15T10:48:17.655Z,54.05
2016-09-15T10:49:18.231Z,53.76
2016-09-15T10:50:28.746Z,53.57
2016-09-15T10:51:33.605Z,53.95
2016-09-15T10:52:29.660Z,52.53
2016-09-15T10:53:32.928Z,50.97
2016-09-15T10:54:28.842Z,50.52
2016-09-15T10:55:32.053Z,49.79
2016-09-15T10:56:31.442Z,50.36
2016-09-15T10:57:25.823Z,51.49
2016-09-15T10:59:41.371Z,50.12
2016-09-15T11:01:31.635Z,50.71
2016-09-15T11:02:20.753Z,50.30
2016-09-15T11:03:33.872Z,49.51
2016-09-15T11:04:26.347Z,49.13
2016-09-15T11:06:30.825Z,48.26
2016-09-15T11:07:18.010Z,48.52
2016-09-15T11:12:26.028Z,49.86
2016-09-15T11:13:34.341Z,48.58
2016-09-15T11:14:34.841Z,47.23
2016-09-15T11:16:45.905Z,47.28
2016-09-15T11:18:38.673Z,48.98
2016-09-15T11:19:14.042Z,48.91
2016-09-15T11:21:38.338Z,48.72
2016-09-15T11:22:31.413Z,48.61
2016-09-15T11:23:32.939Z,49.06
2016-09-15T11:24:24.594Z,49.12
2016-09-15T11:25:32.006Z,48.86
2016-09-15T11:26:24.756Z,49.11
2016-09-15T11:27:31.159Z,49.11
2016-09-15T11:28:31.804Z,48.70
2016-09-15T11:29:42.944Z,49.13
2016-09-15T11:30:33.607Z,49.13
2016-09-15T11:31:37.456Z,48.71
2016-09-15T11:32:27.208Z,47.84
2016-09-15T11:34:25.500Z,46.26
2016-09-15T11:35:25.553Z,44.83
2016-09-15T11:36:23.484Z,44.38
2016-09-15T11:37:23.182Z,44.20
2016-09-15T11:39:14.767Z,44.81
2016-09-15T11:41:30.178Z,47.26
2016-09-15T11:42:30.280Z,46.74
2016-09-15T11:43:25.662Z,47.59
2016-09-15T11:44:39.977Z,47.03
2016-09-15T11:45:38.892Z,47.89
2016-09-15T11:46:37.676Z,46.84
2016-09-15T11:47:24.874Z,46.51
2016-09-15T11:48:25.932Z,46.78
2016-09-15T11:49:28.318Z,47.31
2016-09-15T11:50:27.396Z,47.28
2016-09-15T11:52:26.112Z,47.38
2016-09-15T11:53:21.864Z,47.89
2016-09-15T11:55:31.793Z,45.77
2016-09-15T11:56:33.556Z,45.50
2016-09-15T11:57:24.508Z,44.55
2016-09-15T11:58:39.565Z,44.10
2016-09-15T11:59:33.353Z,44.29
2016-09-15T12:00:38.451Z,44.27
2016-09-15T12:01:32.489Z,44.06
2016-09-15T12:02:33.624Z,45.49
2016-09-15T12:03:38.506Z,45.00
2016-09-15T12:04:28.367Z,44.55
2016-09-15T12:06:24.745Z,45.35
2016-09-15T12:07:29.179Z,43.97
2016-09-15T12:08:38.678Z,41.93
2016-09-15T12:09:18.942Z,42.84
2016-09-15T12:10:35.480Z,43.12
2016-09-15T12:11:30.802Z,44.25
2016-09-15T12:12:37.217Z,44.37
2016-09-15T12:14:37.067Z,45.55
2016-09-15T12:15:36.137Z,46.16
2016-09-15T12:16:38.972Z,46.10
2016-09-15T12:18:23.339Z,47.39
2016-09-15T12:20:38.359Z,47.82
2016-09-15T12:21:40.959Z,47.91
2016-09-15T12:22:41.005Z,47.34
2016-09-15T12:23:35.588Z,47.11
2016-09-15T12:24:24.650Z,46.05
2016-09-15T12:26:24.083Z,44.64
2016-09-15T12:27:34.389Z,45.58
2016-09-15T12:28:24.636Z,46.33
2016-09-15T12:32:34.699Z,43.14
2016-09-15T12:37:42.444Z,40.99
2016-09-15T12:39:35.422Z,41.17
2016-09-15T12:40:29.138Z,41.05
2016-09-15T12:41:31.851Z,41.08
2016-09-15T12:42:27.322Z,40.24
2016-09-15T12:46:40.358Z,40.06
2016-09-15T12:47:24.578Z,38.97
2016-09-15T12:49:25.399Z,40.85
2016-09-15T12:50:28.832Z,40.15
2016-09-15T12:51:27.322Z,40.95
2016-09-15T12:52:31.334Z,40.61
2016-09-15T12:55:26.825Z,40.30
2016-09-15T12:56:23.387Z,40.16
2016-09-15T12:58:40.409Z,39.43
2016-09-15T12:59:31.383Z,38.90
2016-09-15T13:00:23.988Z,39.53
2016-09-15T13:01:26.516Z,39.77
2016-09-15T13:02:24.148Z,40.05
2016-09-15T13:03:23.179Z,39.97
2016-09-15T13:04:34.278Z,41.05
2016-09-15T13:05:27.889Z,41.50
2016-09-15T13:06:18.521Z,41.64
2016-09-15T13:07:37.174Z,41.75
2016-09-15T13:08:25.610Z,41.87
2016-09-15T13:09:29.969Z,42.49
2016-09-15T13:10:36.704Z,42.98
2016-09-15T13:12:24.718Z,43.17
2016-09-15T13:14:35.708Z,43.00
2016-09-15T13:15:25.267Z,43.39
2016-09-15T13:16:26.826Z,42.62
2016-09-15T13:17:28.814Z,42.71
2016-09-15T13:18:31.149Z,42.40
2016-09-15T13:19:28.633Z,42.60
2016-09-15T13:20:33.188Z,42.63
2016-09-15T13:21:23.931Z,42.81
2016-09-15T13:22:30.447Z,43.18
2016-09-15T13:23:33.376Z,43.17
2016-09-15T13:24:29.058Z,43.29
2016-09-15T13:29:26.179Z,43.68
2016-09-15T13:30:24.257Z,42.80
2016-09-15T13:31:38.384Z,43.20
2016-09-15T13:33:32.268Z,43.63
2016-09-15T13:35:23.700Z,43.31
2016-09-15T13:36:27.194Z,43.25
2016-09-15T13:37:23.758Z,43.36
2016-09-15T13:38:39.146Z,43.63
2016-09-15T13:40:31.370Z,42.97
2016-09-15T13:41:23.471Z,43.42
2016-09-15T13:45:24.631Z,43.45
2016-09-15T13:49:38.461Z,41.22
2016-09-15T13:53:34.590Z,42.23
2016-09-15T13:55:26.376Z,42.92
2016-09-15T13:56:22.603Z,43.00
2016-09-15T13:57:24.733Z,43.16
2016-09-15T14:03:31.368Z,42.02
2016-09-15T14:04:42.634Z,41.93
2016-09-15T14:10:25.439Z,41.62
2016-09-15T14:15:28.448Z,42.11
2016-09-15T14:16:32.380Z,42.05
2016-09-15T14:18:24.480Z,41.38
2016-09-15T14:19:32.309Z,42.01
2016-09-15T14:20:42.216Z,42.34
2016-09-15T14:24:18.864Z,41.77
2016-09-15T14:25:39.102Z,41.15
2016-09-15T14:26:31.203Z,41.35
2016-09-15T14:30:25.492Z,42.23
2016-09-15T14:31:24.168Z,43.19
2016-09-15T14:32:38.815Z,43.05
2016-09-15T14:33:24.747Z,44.52
2016-09-15T14:34:24.499Z,43.64
2016-09-15T14:35:39.273Z,43.29
2016-09-15T14:36:36.841Z,41.89
2016-09-15T14:37:31.885Z,42.55
2016-09-15T14:38:36.330Z,45.79
2016-09-15T14:39:19.288Z,45.64
2016-09-15T14:40:32.187Z,44.04
2016-09-15T14:41:32.113Z,43.62
2016-09-15T14:42:38.738Z,44.43
2016-09-15T14:43:23.744Z,43.87
2016-09-15T14:44:23.915Z,43.25
2016-09-15T14:45:24.080Z,43.71
2016-09-15T14:46:36.033Z,44.60
2016-09-15T14:47:29.817Z,45.21
2016-09-15T14:48:49.664Z,44.52
2016-09-15T14:51:26.510Z,45.62
2016-09-15T14:52:22.982Z,44.15
2016-09-15T14:56:28.008Z,43.07
2016-09-15T14:57:32.689Z,42.80
2016-09-15T14:58:30.419Z,43.19
2016-09-15T14:59:33.832Z,43.72
2016-09-15T15:00:33.699Z,44.10
2016-09-15T15:01:27.092Z,44.35
2016-09-15T15:04:19.469Z,43.07
2016-09-15T15:05:31.636Z,42.64
2016-09-15T15:06:32.845Z,42.49
2016-09-15T15:08:32.744Z,42.08
2016-09-15T15:11:35.605Z,42.81
2016-09-15T15:12:25.680Z,43.01
2016-09-15T15:13:25.315Z,42.72
2016-09-15T15:14:26.152Z,43.10
2016-09-15T15:15:25.878Z,43.69
2016-09-15T15:19:25.091Z,43.93
2016-09-15T15:20:30.970Z,44.64
2016-09-15T15:21:24.630Z,43.12
2016-09-15T15:23:33.505Z,43.01
2016-09-15T15:24:30.009Z,43.31
2016-09-15T15:26:33.271Z,43.55
2016-09-15T15:27:28.466Z,43.60
2016-09-15T15:30:24.506Z,44.19
2016-09-15T15:35:37.902Z,41.17
2016-09-15T15:36:34.112Z,41.27
2016-09-15T15:38:28.669Z,41.69
2016-09-15T15:42:28.580Z,41.52
2016-09-15T15:43:39.931Z,41.61
2016-09-15T15:44:29.136Z,41.70
2016-09-15T15:45:25.868Z,41.67
2016-09-15T15:46:44.946Z,41.86
2016-09-15T15:47:29.076Z,41.62
2016-09-15T15:51:23.935Z,41.57
2016-09-15T15:52:25.256Z,42.83
2016-09-15T15:53:39.629Z,42.85
2016-09-15T15:54:26.624Z,42.76
2016-09-15T15:55:31.578Z,42.93
2016-09-15T15:56:26.959Z,43.51
2016-09-15T15:57:50.380Z,44.31
2016-09-15T15:59:45.737Z,44.25
2016-09-15T16:00:25.109Z,44.41
2016-09-15T16:02:28.599Z,44.07
2016-09-15T16:06:26.306Z,45.38
2016-09-15T16:07:33.245Z,45.55
2016-09-15T16:08:30.165Z,46.06
2016-09-15T16:11:23.720Z,47.27
2016-09-15T16:13:28.389Z,47.73
2016-09-15T16:15:25.449Z,48.19
2016-09-15T16:16:39.101Z,47.96
2016-09-15T16:18:34.809Z,48.07
2016-09-15T16:19:08.392Z,48.13
2016-09-15T16:20:08.861Z,48.26
2016-09-15T16:21:23.866Z,48.72
2016-09-15T16:22:26.385Z,49.07
2016-09-15T16:23:20.761Z,48.50
2016-09-15T16:24:25.207Z,48.53
2016-09-15T16:26:35.107Z,48.62
2016-09-15T16:28:26.438Z,48.42
2016-09-15T16:29:43.157Z,49.13
2016-09-15T16:30:38.259Z,50.09
2016-09-15T16:31:24.544Z,48.87
2016-09-15T16:32:27.750Z,48.69
2016-09-15T16:33:30.218Z,49.04
2016-09-15T16:36:24.649Z,49.53
2016-09-15T16:37:37.893Z,49.12
2016-09-15T16:44:31.971Z,51.21
2016-09-15T16:45:26.205Z,51.81
2016-09-15T16:46:38.644Z,51.73
2016-09-15T16:47:36.044Z,51.61
2016-09-15T16:49:41.068Z,51.98
2016-09-15T16:52:30.722Z,53.65
2016-09-15T16:54:30.091Z,55.70
2016-09-15T16:58:29.716Z,54.40
2016-09-15T17:00:29.474Z,56.19
2016-09-15T17:01:26.861Z,55.69
2016-09-15T17:10:24.697Z,60.02
2016-09-15T17:14:32.665Z,60.07
2016-09-15T17:15:28.551Z,60.45
2016-09-15T17:20:28.466Z,61.52
2016-09-15T17:21:30.067Z,61.52
2016-09-15T17:23:29.196Z,59.51
2016-09-15T17:24:25.578Z,59.77
2016-09-15T17:29:37.860Z,61.71
2016-09-15T17:31:32.722Z,62.13
2016-09-15T17:32:26.945Z,62.12
2016-09-15T17:33:37.669Z,62.71
2016-09-15T17:34:26.281Z,63.91
2016-09-15T17:37:38.035Z,65.36
2016-09-15T17:38:31.648Z,65.51
2016-09-15T17:40:38.065Z,66.16
2016-09-15T17:42:28.411Z,66.36
2016-09-15T17:43:38.649Z,66.75
2016-09-15T17:45:23.997Z,66.74
2016-09-15T17:46:27.751Z,67.40
2016-09-15T17:47:33.749Z,67.66
2016-09-15T17:50:32.667Z,69.31
2016-09-15T17:52:24.977Z,69.21
2016-09-15T17:54:40.002Z,69.28
2016-09-15T17:56:30.184Z,70.19
2016-09-15T17:57:24.066Z,69.95
2016-09-15T17:58:38.472Z,69.39
2016-09-15T17:59:32.626Z,69.30
2016-09-15T18:00:33.291Z,69.84
2016-09-15T18:05:36.568Z,71.99
2016-09-15T18:06:33.825Z,72.54
2016-09-15T18:08:22.708Z,73.02
2016-09-15T18:09:23.727Z,73.91